createdAt,value
2024-03-05T00:01:03.696Z,100967.20
2024-03-05T00:03:42.936Z,100967.84
2024-03-05T00:06:12.280Z,100973.34
2024-03-05T00:08:40.271Z,100972.01
2024-03-05T00:11:08.942Z,100969.36
2024-03-05T00:13:37.128Z,100970.40
2024-03-05T00:16:05.771Z,100974.12
2024-03-05T00:18:34.034Z,100971.42
2024-03-05T00:21:02.083Z,100969.07
2024-03-05T00:23:30.232Z,100974.04
2024-03-05T00:25:58.366Z,100970.27
2024-03-05T00:28:26.546Z,100968.30
2024-03-05T00:30:54.623Z,100968.05
2024-03-05T00:33:22.586Z,100966.08
2024-03-05T00:35:50.653Z,100968.69
2024-03-05T00:38:25.240Z,100969.34
2024-03-05T00:41:01.879Z,100970.66
2024-03-05T00:43:30.104Z,100970.96
2024-03-05T00:45:58.274Z,100970.83
2024-03-05T00:48:26.362Z,100970.05
2024-03-05T00:50:54.647Z,100968.89
2024-03-05T00:53:22.881Z,100972.73
2024-03-05T00:55:50.986Z,100971.66
2024-03-05T00:58:19.125Z,100974.79
2024-03-05T01:00:48.373Z,100974.65
2024-03-05T01:03:16.814Z,100974.08
2024-03-05T01:05:44.891Z,100974.21
2024-03-05T01:08:13.783Z,100976.77
2024-03-05T01:10:42.951Z,100975.61
2024-03-05T01:13:11.168Z,100979.95
2024-03-05T01:15:39.340Z,100974.05
2024-03-05T01:18:07.596Z,100973.97
2024-03-05T01:20:38.632Z,100974.46
2024-03-05T01:23:06.830Z,100978.07
2024-03-05T01:25:35.141Z,100977.30
2024-03-05T01:28:03.282Z,100977.15
2024-03-05T01:30:31.978Z,100978.80
2024-03-05T01:33:00.150Z,100982.15
2024-03-05T01:35:29.195Z,100983.24
2024-03-05T01:37:57.628Z,100979.98
2024-03-05T01:40:25.975Z,100985.31
2024-03-05T01:42:54.071Z,100985.82
2024-03-05T01:45:22.194Z,100983.89
2024-03-05T01:47:50.984Z,100977.86
2024-03-05T01:50:19.696Z,100976.50
2024-03-05T01:52:47.997Z,100975.71
2024-03-05T01:55:19.303Z,100977.56
2024-03-05T01:57:50.764Z,100974.60
2024-03-05T02:00:22.245Z,100974.20
2024-03-05T02:02:51.345Z,100975.95
2024-03-05T02:05:19.548Z,100974.79
2024-03-05T02:07:48.812Z,100976.75
2024-03-05T02:10:17.586Z,100974.80
2024-03-05T02:12:45.657Z,100974.63
2024-03-05T02:15:14.626Z,100976.63
2024-03-05T02:17:47.112Z,100977.55
2024-03-05T02:20:15.300Z,100979.05
2024-03-05T02:22:44.210Z,100979.38
2024-03-05T02:25:13.245Z,100976.85
2024-03-05T02:27:45.530Z,100978.99
2024-03-05T02:30:16.736Z,100976.88
2024-03-05T02:32:45.263Z,100980.63
2024-03-05T02:35:13.419Z,100982.16
2024-03-05T02:37:42.567Z,100978.08
2024-03-05T02:40:14.928Z,100978.09
2024-03-05T02:42:44.415Z,100984.60
2024-03-05T02:45:12.694Z,100981.65
2024-03-05T02:47:44.050Z,100981.58
2024-03-05T02:50:12.558Z,100984.45
2024-03-05T02:52:41.151Z,100987.82
2024-03-05T02:55:14.023Z,100988.89
2024-03-05T02:57:42.910Z,100992.30
2024-03-05T03:00:20.674Z,100991.90
2024-03-05T03:02:50.484Z,100997.30
2024-03-05T03:05:22.978Z,100993.80
2024-03-05T03:07:52.949Z,100998.05
2024-03-05T03:10:21.516Z,101000.75
2024-03-05T03:12:49.945Z,101003.04
2024-03-05T03:15:22.044Z,101005.39
2024-03-05T03:17:51.051Z,101008.08
2024-03-05T03:20:20.129Z,101013.48
2024-03-05T03:22:48.376Z,101008.69
2024-03-05T03:25:16.904Z,101011.25
2024-03-05T03:27:45.276Z,101013.86
2024-03-05T03:30:19.437Z,101014.73
2024-03-05T03:32:48.929Z,101013.49
2024-03-05T03:35:18.929Z,101014.45
2024-03-05T03:37:47.969Z,101015.86
2024-03-05T03:40:22.392Z,101016.81
2024-03-05T03:42:52.345Z,101019.33
2024-03-05T03:45:20.741Z,101020.96
2024-03-05T03:47:48.930Z,101022.50
2024-03-05T03:50:17.656Z,101021.75
2024-03-05T03:52:46.446Z,101025.31
2024-03-05T03:55:14.835Z,101022.63
2024-03-05T03:57:43.438Z,101023.42
2024-03-05T04:00:18.510Z,101026.05
2024-03-05T04:02:50.485Z,101022.96
2024-03-05T04:05:18.806Z,101024.70
2024-03-05T04:07:47.111Z,101024.85
2024-03-05T04:10:16.722Z,101027.59
2024-03-05T04:12:46.208Z,101029.16
2024-03-05T04:15:14.453Z,101028.63
2024-03-05T04:17:42.863Z,101029.94
2024-03-05T04:20:11.730Z,101029.65
2024-03-05T04:22:40.771Z,101033.79
2024-03-05T04:25:09.177Z,101030.44
2024-03-05T04:27:43.559Z,101029.56
2024-03-05T04:30:14.530Z,101028.80
2024-03-05T04:32:58.475Z,101026.02
2024-03-05T04:35:30.252Z,101027.20
2024-03-05T04:37:59.080Z,101028.86
2024-03-05T04:40:27.849Z,101027.70
2024-03-05T04:42:56.992Z,101030.91
2024-03-05T04:45:26.828Z,101036.14
2024-03-05T04:47:56.010Z,101035.08
2024-03-05T04:50:24.312Z,101035.52
2024-03-05T04:52:54.522Z,101036.11
2024-03-05T04:55:23.761Z,101034.94
2024-03-05T04:57:52.433Z,101035.97
2024-03-05T05:00:21.851Z,101036.23
2024-03-05T05:02:52.396Z,101037.39
2024-03-05T05:05:22.859Z,101038.83
2024-03-05T05:07:51.208Z,101040.66
2024-03-05T05:10:19.284Z,101038.12
2024-03-05T05:12:47.503Z,101036.64
2024-03-05T05:15:15.757Z,101036.56
2024-03-05T05:17:46.122Z,101039.44
2024-03-05T05:20:16.837Z,101036.25
2024-03-05T05:22:46.020Z,101038.71
2024-03-05T05:25:20.974Z,101037.19
2024-03-05T05:27:52.104Z,101037.29
2024-03-05T05:30:22.209Z,101040.84
2024-03-05T05:32:51.406Z,101040.34
2024-03-05T05:35:25.043Z,101042.58
2024-03-05T05:37:53.121Z,101044.30
2024-03-05T05:40:22.019Z,101048.59
2024-03-05T05:42:51.435Z,101046.73
2024-03-05T05:45:22.870Z,101051.33
2024-03-05T05:47:55.611Z,101053.13
2024-03-05T05:50:30.049Z,101051.40
2024-03-05T05:52:59.005Z,101051.17
2024-03-05T05:55:27.719Z,101049.95
2024-03-05T05:57:58.437Z,101051.39
2024-03-05T06:00:38.817Z,101047.83
2024-03-05T06:03:12.409Z,101051.44
2024-03-05T06:05:43.970Z,101052.73
2024-03-05T06:08:12.963Z,101053.94
2024-03-05T06:10:44.727Z,101056.27
2024-03-05T06:13:12.951Z,101058.84
2024-03-05T06:15:41.103Z,101062.70
2024-03-05T06:18:09.191Z,101064.39
2024-03-05T06:20:37.746Z,101061.64
2024-03-05T06:23:05.985Z,101064.45
2024-03-05T06:25:34.958Z,101065.67
2024-03-05T06:28:03.421Z,101068.48
2024-03-05T06:30:31.784Z,101064.85
2024-03-05T06:33:00.205Z,101067.80
2024-03-05T06:35:30.623Z,101069.58
2024-03-05T06:38:01.786Z,101068.31
2024-03-05T06:40:30.062Z,101072.17
2024-03-05T06:43:14.686Z,101071.63
2024-03-05T06:45:44.386Z,101078.41
2024-03-05T06:48:17.658Z,101081.98
2024-03-05T06:50:53.640Z,101083.58
2024-03-05T06:53:41.702Z,101080.74
2024-03-05T06:56:45.288Z,101080.54
2024-03-05T06:59:14.364Z,101083.82
2024-03-05T07:01:42.782Z,101083.71
2024-03-05T07:04:11.011Z,101085.27
2024-03-05T07:06:39.063Z,101082.97
2024-03-05T07:09:07.223Z,101082.83
2024-03-05T07:11:35.540Z,101080.11
2024-03-05T07:14:03.985Z,101083.23
2024-03-05T07:16:33.543Z,101083.30
2024-03-05T07:19:04.875Z,101084.80
2024-03-05T07:21:33.167Z,101088.03
2024-03-05T07:24:01.371Z,101091.00
2024-03-05T07:26:32.974Z,101092.77
2024-03-05T07:29:01.249Z,101093.95
2024-03-05T07:31:30.100Z,101092.95
2024-03-05T07:33:59.595Z,101090.61
2024-03-05T07:36:27.899Z,101094.33
2024-03-05T07:38:56.042Z,101096.02
2024-03-05T07:41:30.360Z,101094.73
2024-03-05T07:44:05.060Z,101095.79
2024-03-05T07:46:35.306Z,101094.32
2024-03-05T07:49:04.334Z,101095.89
2024-03-05T07:51:41.179Z,101093.63
2024-03-05T07:54:14.482Z,101095.98
2024-03-05T07:56:44.440Z,101096.98
2024-03-05T07:59:13.070Z,101097.81
2024-03-05T08:01:42.088Z,101096.92
2024-03-05T08:04:10.508Z,101098.19
2024-03-05T08:06:38.626Z,101100.23
2024-03-05T08:09:06.677Z,101101.22
2024-03-05T08:11:36.947Z,101104.48
2024-03-05T08:14:08.799Z,101098.48
2024-03-05T08:16:39.555Z,101100.97
2024-03-05T08:19:08.532Z,101104.83
2024-03-05T08:21:36.734Z,101105.14
2024-03-05T08:24:06.671Z,101104.64
2024-03-05T08:26:35.960Z,101105.95
2024-03-05T08:29:04.778Z,101107.37
2024-03-05T08:31:32.930Z,101105.05
2024-03-05T08:34:02.372Z,101107.50
2024-03-05T08:36:32.090Z,101104.42
2024-03-05T08:39:00.430Z,101106.45
2024-03-05T08:41:29.381Z,101107.35
2024-03-05T08:43:57.531Z,101105.48
2024-03-05T08:46:25.654Z,101104.02
2024-03-05T08:48:53.921Z,101106.33
2024-03-05T08:51:22.062Z,101105.67
2024-03-05T08:53:50.116Z,101108.01
2024-03-05T08:56:18.364Z,101108.30
2024-03-05T08:58:46.623Z,101108.85
2024-03-05T09:01:15.043Z,101105.27
2024-03-05T09:03:43.223Z,101107.58
2024-03-05T09:06:11.512Z,101108.69
2024-03-05T09:08:42.071Z,101108.21
2024-03-05T09:11:10.486Z,101107.30
2024-03-05T09:13:46.520Z,101107.62
2024-03-05T09:16:14.952Z,101108.07
2024-03-05T09:18:43.313Z,101112.86
2024-03-05T09:21:13.381Z,101111.89
2024-03-05T09:23:41.795Z,101113.77
2024-03-05T09:26:11.657Z,101115.62
2024-03-05T09:28:40.256Z,101116.61
2024-03-05T09:31:09.012Z,101116.91
2024-03-05T09:33:37.286Z,101114.70
2024-03-05T09:36:09.309Z,101115.94
2024-03-05T09:38:37.890Z,101116.90
2024-03-05T09:41:07.256Z,101119.75
2024-03-05T09:43:40.966Z,101118.80
2024-03-05T09:46:11.036Z,101118.01
2024-03-05T09:48:42.007Z,101119.95
2024-03-05T09:51:15.457Z,101124.13
2024-03-05T09:53:43.605Z,101125.80
2024-03-05T09:56:17.030Z,101121.44
2024-03-05T09:58:45.563Z,101125.36
2024-03-05T10:01:15.056Z,101128.26
2024-03-05T10:03:43.341Z,101131.73
2024-03-05T10:06:14.321Z,101131.25
2024-03-05T10:08:42.474Z,101130.66
2024-03-05T10:11:10.953Z,101129.31
2024-03-05T10:13:39.460Z,101131.84
2024-03-05T10:16:19.113Z,101129.53
2024-03-05T10:18:48.428Z,101135.66
2024-03-05T10:21:25.440Z,101138.05
2024-03-05T10:24:00.501Z,101138.81
2024-03-05T10:26:31.185Z,101137.45
2024-03-05T10:29:11.243Z,101134.41
2024-03-05T10:31:41.853Z,101139.62
2024-03-05T10:34:11.039Z,101137.96
2024-03-05T10:36:41.514Z,101142.98
2024-03-05T10:39:14.091Z,101142.27
2024-03-05T10:41:47.603Z,101139.00
2024-03-05T10:44:27.493Z,101141.09
2024-03-05T10:46:57.495Z,101138.89
2024-03-05T10:49:27.061Z,101137.27
2024-03-05T10:51:58.519Z,101138.80
2024-03-05T10:54:29.094Z,101139.30
2024-03-05T10:56:58.344Z,101137.44
2024-03-05T10:59:42.796Z,101137.38
2024-03-05T11:02:13.933Z,101137.42
2024-03-05T11:04:44.017Z,101138.22
2024-03-05T11:07:12.644Z,101134.08
2024-03-05T11:09:43.129Z,101133.11
2024-03-05T11:12:18.675Z,101138.39
2024-03-05T11:14:49.623Z,101134.52
2024-03-05T11:17:18.050Z,101131.39
2024-03-05T11:19:46.786Z,101132.80
2024-03-05T11:22:27.872Z,101124.52
2024-03-05T11:25:06.814Z,101128.85
2024-03-05T11:27:35.613Z,101126.56
2024-03-05T11:30:13.224Z,101126.48
2024-03-05T11:32:45.691Z,101124.05
2024-03-05T11:35:15.008Z,101122.05
2024-03-05T11:37:54.149Z,101126.52
2024-03-05T11:40:35.680Z,101121.41
2024-03-05T11:43:06.202Z,101122.02
2024-03-05T11:45:48.478Z,101121.09
2024-03-05T11:48:22.201Z,101119.73
2024-03-05T11:50:55.245Z,101120.20
2024-03-05T11:53:24.303Z,101117.15
2024-03-05T11:55:54.314Z,101117.76
2024-03-05T11:58:26.094Z,101120.30
2024-03-05T12:01:04.155Z,101118.47
2024-03-05T12:03:32.699Z,101117.42
2024-03-05T12:06:01.580Z,101120.59
2024-03-05T12:08:34.068Z,101121.28
2024-03-05T12:11:04.343Z,101118.80
2024-03-05T12:13:33.545Z,101125.24
2024-03-05T12:16:11.380Z,101124.18
2024-03-05T12:18:39.655Z,101129.11
2024-03-05T12:21:08.474Z,101130.58
2024-03-05T12:23:41.883Z,101131.71
2024-03-05T12:26:13.044Z,101132.54
2024-03-05T12:28:41.883Z,101136.05
2024-03-05T12:31:10.447Z,101137.48
2024-03-05T12:33:38.955Z,101137.02
2024-03-05T12:36:08.646Z,101136.36
2024-03-05T12:38:37.683Z,101138.83
2024-03-05T12:41:06.004Z,101141.64
2024-03-05T12:43:35.453Z,101139.23
2024-03-05T12:46:04.310Z,101137.84
2024-03-05T12:48:33.024Z,101140.23
2024-03-05T12:51:01.678Z,101141.98
2024-03-05T12:53:31.274Z,101142.64
2024-03-05T12:56:04.166Z,101141.05
2024-03-05T12:58:41.727Z,101139.41
2024-03-05T13:01:16.367Z,101142.20
2024-03-05T13:03:45.261Z,101145.45
2024-03-05T13:06:13.741Z,101148.40
2024-03-05T13:08:42.217Z,101147.97
2024-03-05T13:11:10.780Z,101144.86
2024-03-05T13:13:39.068Z,101146.62
2024-03-05T13:16:07.653Z,101152.30
2024-03-05T13:18:35.976Z,101150.40
2024-03-05T13:21:07.413Z,101151.08
2024-03-05T13:23:36.530Z,101154.54
2024-03-05T13:26:05.579Z,101157.05
2024-03-05T13:28:35.209Z,101154.48
2024-03-05T13:31:07.342Z,101155.10
2024-03-05T13:33:35.604Z,101155.59
2024-03-05T13:36:04.117Z,101156.19
2024-03-05T13:38:35.545Z,101159.90
2024-03-05T13:43:32.621Z,101163.34
2024-03-05T13:46:01.896Z,101167.86
2024-03-05T13:48:31.881Z,101169.59
2024-03-05T13:51:03.280Z,101172.58
2024-03-05T13:53:31.582Z,101173.12
2024-03-05T13:56:00.226Z,101172.98
2024-03-05T13:58:29.454Z,101178.08
2024-03-05T14:01:01.625Z,101176.78
2024-03-05T14:03:30.123Z,101179.75
2024-03-05T14:05:59.436Z,101182.36
2024-03-05T14:08:30.268Z,101186.20
2024-03-05T14:11:02.632Z,101189.41
2024-03-05T14:13:31.370Z,101188.88
2024-03-05T14:16:00.940Z,101188.62
2024-03-05T14:18:29.263Z,101191.90
2024-03-05T14:20:57.916Z,101194.98
2024-03-05T14:23:26.334Z,101196.94
2024-03-05T14:25:56.680Z,101199.30
2024-03-05T14:28:25.695Z,101202.34
2024-03-05T14:30:54.131Z,101203.98
2024-03-05T14:33:22.533Z,101203.50
2024-03-05T14:35:51.296Z,101204.23
2024-03-05T14:38:22.153Z,101206.18
2024-03-05T14:40:52.249Z,101210.00
2024-03-05T14:43:20.575Z,101209.80
2024-03-05T14:45:50.810Z,101211.13
2024-03-05T14:48:19.075Z,101212.96
2024-03-05T14:50:48.765Z,101213.86
2024-03-05T14:53:17.273Z,101216.73
2024-03-05T14:55:45.567Z,101221.36
2024-03-05T14:58:13.939Z,101222.19
2024-03-05T15:00:43.485Z,101229.25
2024-03-05T15:03:11.692Z,101230.95
2024-03-05T15:05:40.079Z,101235.47
2024-03-05T15:08:10.970Z,101236.32
2024-03-05T15:10:39.515Z,101241.36
2024-03-05T15:13:09.085Z,101242.73
2024-03-05T15:15:37.773Z,101246.30
2024-03-05T15:18:07.005Z,101249.90
2024-03-05T15:20:35.566Z,101252.71
2024-03-05T15:23:04.033Z,101255.91
2024-03-05T15:25:36.124Z,101258.16
2024-03-05T15:28:09.657Z,101258.83
2024-03-05T15:30:38.048Z,101263.45
2024-03-05T15:33:10.992Z,101265.02
2024-03-05T15:35:39.331Z,101269.30
2024-03-05T15:38:09.222Z,101273.57
2024-03-05T15:40:39.237Z,101276.80
2024-03-05T15:43:08.818Z,101281.02
2024-03-05T15:45:40.070Z,101288.17
2024-03-05T15:48:11.992Z,101290.00
2024-03-05T15:50:42.879Z,101290.20
2024-03-05T15:53:11.960Z,101291.20
2024-03-05T15:55:43.897Z,101292.95
2024-03-05T15:58:40.820Z,101299.04
2024-03-05T16:01:10.982Z,101300.55
2024-03-05T16:03:53.347Z,101301.52
2024-03-05T16:06:31.755Z,101306.40
2024-03-05T16:09:01.369Z,101309.21
2024-03-05T16:11:29.728Z,101313.39
2024-03-05T16:13:58.579Z,101315.55
2024-03-05T16:16:27.192Z,101319.30
2024-03-05T16:18:59.692Z,101324.52
2024-03-05T16:21:29.820Z,101326.33
2024-03-05T16:23:58.252Z,101330.05
2024-03-05T16:26:26.771Z,101331.27
2024-03-05T16:28:55.561Z,101335.48
2024-03-05T16:31:24.258Z,101334.02
2024-03-05T16:33:54.620Z,101337.14
2024-03-05T16:36:23.186Z,101339.63
2024-03-05T16:38:53.057Z,101340.52
2024-03-05T16:41:22.434Z,101344.45
2024-03-05T16:43:51.426Z,101346.73
2024-03-05T16:46:19.823Z,101348.36
2024-03-05T16:48:48.290Z,101351.88
2024-03-05T16:51:16.528Z,101353.00
2024-03-05T16:53:44.906Z,101356.02
2024-03-05T16:56:13.477Z,101361.21
2024-03-05T16:58:43.127Z,101362.38
2024-03-05T17:01:17.460Z,101363.48
2024-03-05T17:03:46.576Z,101364.77
2024-03-05T17:06:17.436Z,101369.29
2024-03-05T17:08:49.845Z,101371.77
2024-03-05T17:11:18.228Z,101372.33
2024-03-05T17:13:49.427Z,101376.14
2024-03-05T17:16:18.892Z,101378.89
2024-03-05T17:18:47.342Z,101379.07
2024-03-05T17:21:16.022Z,101377.77
2024-03-05T17:23:47.827Z,101379.65
2024-03-05T17:26:17.670Z,101378.02
2024-03-05T17:28:46.793Z,101382.60
2024-03-05T17:31:15.007Z,101382.08
2024-03-05T17:33:43.558Z,101388.38
2024-03-05T17:36:11.998Z,101386.14
2024-03-05T17:38:40.466Z,101386.71
2024-03-05T17:41:09.413Z,101391.91
2024-03-05T17:43:38.058Z,101392.34
2024-03-05T17:46:06.583Z,101393.79
2024-03-05T17:48:35.221Z,101401.95
2024-03-05T17:51:03.907Z,101398.38
2024-03-05T17:53:32.382Z,101405.78
2024-03-05T17:56:03.160Z,101404.80
2024-03-05T17:58:31.527Z,101407.27
2024-03-05T18:01:00.221Z,101405.85
2024-03-05T18:03:36.399Z,101403.86
2024-03-05T18:06:05.274Z,101406.73
2024-03-05T18:08:33.615Z,101403.59
2024-03-05T18:11:02.498Z,101409.30
2024-03-05T18:13:30.881Z,101412.71
2024-03-05T18:15:59.242Z,101413.41
2024-03-05T18:18:28.000Z,101416.60
2024-03-05T18:20:56.910Z,101417.09
2024-03-05T18:23:25.544Z,101419.84
2024-03-05T18:25:54.164Z,101422.20
2024-03-05T18:28:24.073Z,101422.42
2024-03-05T18:30:52.810Z,101423.89
2024-03-05T18:33:22.592Z,101423.69
2024-03-05T18:35:51.126Z,101425.65
2024-03-05T18:38:27.858Z,101426.82
2024-03-05T18:41:01.371Z,101428.52
2024-03-05T18:43:31.688Z,101433.60
2024-03-05T18:46:01.589Z,101435.58
2024-03-05T18:48:31.074Z,101439.86
2024-03-05T18:51:00.291Z,101438.89
2024-03-05T18:53:39.276Z,101440.84
2024-03-05T18:56:14.104Z,101437.30
2024-03-05T18:58:44.377Z,101438.34
2024-03-05T19:01:15.791Z,101441.96
2024-03-05T19:03:45.748Z,101443.69
2024-03-05T19:06:14.107Z,101448.42
2024-03-05T19:08:42.473Z,101448.17
2024-03-05T19:11:12.781Z,101445.28
2024-03-05T19:13:43.102Z,101453.95
2024-03-05T19:16:11.754Z,101456.15
2024-03-05T19:18:40.125Z,101462.55
2024-03-05T19:21:09.618Z,101463.05
2024-03-05T19:23:41.177Z,101467.23
2024-03-05T19:26:13.781Z,101465.33
2024-03-05T19:28:42.194Z,101471.30
2024-03-05T19:31:10.978Z,101472.77
2024-03-05T19:33:40.053Z,101474.55
2024-03-05T19:36:10.079Z,101472.82
2024-03-05T19:38:41.802Z,101475.41
2024-03-05T19:41:11.504Z,101477.47
2024-03-05T19:43:42.954Z,101477.48
2024-03-05T19:46:11.538Z,101478.77
2024-03-05T19:48:39.768Z,101478.20
2024-03-05T19:51:08.327Z,101482.72
2024-03-05T19:53:36.787Z,101481.88
2024-03-05T19:56:06.316Z,101488.05
2024-03-05T19:58:35.214Z,101486.77
2024-03-05T20:01:08.591Z,101493.34
2024-03-05T20:03:37.175Z,101490.40
2024-03-05T20:06:10.226Z,101494.62
2024-03-05T20:08:40.490Z,101496.87
2024-03-05T20:11:12.379Z,101496.83
2024-03-05T20:13:41.908Z,101497.77
2024-03-05T20:16:10.748Z,101501.23
2024-03-05T20:18:39.469Z,101500.46
2024-03-05T20:21:10.056Z,101503.48
2024-03-05T20:23:39.077Z,101501.36
2024-03-05T20:26:09.411Z,101503.45
2024-03-05T20:28:38.180Z,101504.88
2024-03-05T20:31:08.750Z,101508.55
2024-03-05T20:33:39.050Z,101509.27
2024-03-05T20:36:10.302Z,101507.61
2024-03-05T20:38:38.983Z,101508.63
2024-03-05T20:41:08.949Z,101512.89
2024-03-05T20:43:37.402Z,101514.75
2024-03-05T20:46:05.949Z,101519.92
2024-03-05T20:51:25.221Z,101515.55
2024-03-05T20:53:54.122Z,101517.58
2024-03-05T20:56:22.383Z,101525.51
2024-03-05T20:58:50.648Z,101528.95
2024-03-05T21:01:19.392Z,101529.16
2024-03-05T21:03:47.928Z,101532.73
2024-03-05T21:06:16.248Z,101534.30
2024-03-05T21:08:44.602Z,101534.23
2024-03-05T21:11:13.262Z,101535.92
2024-03-05T21:13:44.347Z,101536.17
2024-03-05T21:16:13.682Z,101533.89
2024-03-05T21:18:42.044Z,101534.15
2024-03-05T21:21:15.180Z,101540.52
2024-03-05T21:23:45.282Z,101536.90
2024-03-05T21:26:27.856Z,101535.02
2024-03-05T21:29:06.295Z,101536.05
2024-03-05T21:31:39.762Z,101539.22
2024-03-05T21:34:08.090Z,101538.57
2024-03-05T21:36:37.597Z,101536.59
2024-03-05T21:39:05.876Z,101538.21
2024-03-05T21:41:34.187Z,101536.45
2024-03-05T21:44:02.522Z,101534.46
2024-03-05T21:46:30.888Z,101536.58
2024-03-05T21:48:59.422Z,101542.42
2024-03-05T21:51:28.174Z,101539.98
2024-03-05T21:53:57.637Z,101543.95
2024-03-05T21:56:25.858Z,101545.18
2024-03-05T21:58:54.082Z,101543.33
2024-03-05T22:01:22.865Z,101549.18
2024-03-05T22:03:51.107Z,101545.75
2024-03-05T22:06:24.357Z,101544.42
2024-03-05T22:08:55.656Z,101548.58
2024-03-05T22:11:23.821Z,101546.37
2024-03-05T22:13:52.290Z,101548.16
2024-03-05T22:16:20.479Z,101551.77
2024-03-05T22:18:50.560Z,101553.69
2024-03-05T22:21:19.188Z,101562.27
2024-03-05T22:23:47.363Z,101561.94
2024-03-05T22:26:17.749Z,101565.36
2024-03-05T22:28:45.978Z,101563.83
2024-03-05T22:31:14.252Z,101566.64
2024-03-05T22:33:42.444Z,101568.77
2024-03-05T22:36:10.662Z,101573.31
2024-03-05T22:38:38.914Z,101574.45
2024-03-05T22:41:07.305Z,101576.11
2024-03-05T22:43:35.887Z,101577.04
2024-03-05T22:46:04.623Z,101577.11
2024-03-05T22:48:33.017Z,101582.38
2024-03-05T22:51:01.338Z,101580.88
2024-03-05T22:53:29.866Z,101579.68
2024-03-05T22:55:58.162Z,101580.83
2024-03-05T22:58:26.445Z,101582.59
2024-03-05T23:00:59.646Z,101581.48
2024-03-05T23:03:28.266Z,101582.17
2024-03-05T23:05:56.873Z,101580.59
2024-03-05T23:08:25.906Z,101579.27
2024-03-05T23:10:54.572Z,101575.81
2024-03-05T23:13:23.252Z,101575.99
2024-03-05T23:15:52.072Z,101576.02
2024-03-05T23:18:20.215Z,101582.30
2024-03-05T23:20:48.593Z,101584.62
2024-03-05T23:23:16.816Z,101587.80
2024-03-05T23:25:48.909Z,101587.14
2024-03-05T23:28:17.388Z,101585.50
2024-03-05T23:30:47.060Z,101587.56
2024-03-05T23:33:15.917Z,101590.58
2024-03-05T23:35:44.422Z,101595.86
2024-03-05T23:38:12.713Z,101600.73
2024-03-05T23:40:41.049Z,101608.55
2024-03-05T23:43:09.234Z,101611.05
2024-03-05T23:45:37.743Z,101611.16
2024-03-05T23:48:09.161Z,101611.26
2024-03-05T23:50:37.777Z,101612.13
2024-03-05T23:53:05.968Z,101614.95
2024-03-05T23:55:34.318Z,101612.99
2024-03-05T23:58:02.592Z,101610.41
